Flugwetter

METAR EDDW
2020/07/07 00:20 EDDW 070020Z 27009KT 9999 FEW044 11/09 Q1019
TAF EDDW
2020/07/06 18:27 TAF TAF EDDW 061700Z 0618/0718 29015G25KT 9999 FEW030 PROB30 TEMPO 0618/0619 SHRA SCT020CB BECMG 0618/0620 27010KT PROB30 TEMPO 0712/0716 26015G25KT SHRA BKN025TCU
METAR EDDH
2020/07/07 00:20 EDDH 070020Z 25007KT CAVOK 11/09 Q1017 NOSIG
TAF EDDH
2020/07/06 18:27 TAF EDDH 061700Z 0618/0724 29015G25KT 9999 FEW030 BECMG 0618/0620 28010KT PROB30 TEMPO 0618/0619 SHRA SCT020CB BECMG 0623/0701 26005KT BECMG 0706/0708 25010KT TEMPO 0712/0717 26015G25KT SHRA BKN025TCU BECMG 0719/0721 24005KT PROB30 TEMPO 0722/0724 BKN012
METAR VRMM
2020/07/07 00:00 VRMM 070000Z 00000KT 9999 FEW017TCU BKN120 27/24 Q1008 TEMPO 5000 -SHRA
TAF VRMM
2020/07/06 18:16 TAF VRMM 061700Z 0618/0724 18007KT 9000 FEW017TCU BKN120 TEMPO 0618/0624 25015G30KT 4000 SHRA SCT016CB

Quelle:

Bereitgestellt von den Servern der NOAA tgftp.nws.noaa.gov
Alle Angaben ohne Gewähr